sensor_id;sensor_type;location;lat;lon;timestamp;P1;durP1;ratioP1;P2;durP2;ratioP2
20511;SDS011;10414;52.074;5.126;2023-03-01T00:01:00;22.90;;;9.98;;
20511;SDS011;10414;52.074;5.126;2023-03-01T00:03:28;23.05;;;11.57;;
20511;SDS011;10414;52.074;5.126;2023-03-01T00:05:55;23.08;;;11.05;;
20511;SDS011;10414;52.074;5.126;2023-03-01T00:08:22;23.25;;;11.80;;
20511;SDS011;10414;52.074;5.126;2023-03-01T00:10:50;28.85;;;11.02;;
20511;SDS011;10414;52.074;5.126;2023-03-01T00:13:26;26.40;;;11.45;;
20511;SDS011;10414;52.074;5.126;2023-03-01T00:15:53;23.60;;;11.48;;
20511;SDS011;10414;52.074;5.126;2023-03-01T00:18:20;23.52;;;11.18;;
20511;SDS011;10414;52.074;5.126;2023-03-01T00:20:49;25.75;;;11.75;;
20511;SDS011;10414;52.074;5.126;2023-03-01T00:23:17;23.90;;;11.15;;
20511;SDS011;10414;52.074;5.126;2023-03-01T00:25:44;24.40;;;11.43;;
20511;SDS011;10414;52.074;5.126;2023-03-01T00:28:12;21.35;;;11.27;;
20511;SDS011;10414;52.074;5.126;2023-03-01T00:30:39;24.85;;;11.75;;
20511;SDS011;10414;52.074;5.126;2023-03-01T00:33:06;23.48;;;10.50;;
20511;SDS011;10414;52.074;5.126;2023-03-01T00:35:33;21.13;;;10.38;;
20511;SDS011;10414;52.074;5.126;2023-03-01T00:38:00;21.95;;;11.15;;
20511;SDS011;10414;52.074;5.126;2023-03-01T00:40:28;25.70;;;10.38;;
20511;SDS011;10414;52.074;5.126;2023-03-01T00:42:55;27.73;;;10.80;;
20511;SDS011;10414;52.074;5.126;2023-03-01T00:45:24;22.48;;;10.10;;
20511;SDS011;10414;52.074;5.126;2023-03-01T00:47:51;22.23;;;9.95;;
20511;SDS011;10414;52.074;5.126;2023-03-01T00:50:18;22.35;;;10.40;;
20511;SDS011;10414;52.074;5.126;2023-03-01T00:52:45;21.90;;;10.38;;
20511;SDS011;10414;52.074;5.126;2023-03-01T00:55:12;25.23;;;10.52;;
20511;SDS011;10414;52.074;5.126;2023-03-01T00:57:39;20.25;;;9.43;;
20511;SDS011;10414;52.074;5.126;2023-03-01T01:00:06;27.05;;;11.32;;
20511;SDS011;10414;52.074;5.126;2023-03-01T01:02:37;29.13;;;10.90;;
20511;SDS011;10414;52.074;5.126;2023-03-01T01:05:04;22.05;;;10.15;;
20511;SDS011;10414;52.074;5.126;2023-03-01T01:07:32;22.48;;;10.85;;
20511;SDS011;10414;52.074;5.126;2023-03-01T01:09:59;22.85;;;10.52;;
20511;SDS011;10414;52.074;5.126;2023-03-01T01:12:26;20.80;;;9.95;;
20511;SDS011;10414;52.074;5.126;2023-03-01T01:14:53;21.90;;;9.57;;
20511;SDS011;10414;52.074;5.126;2023-03-01T01:17:20;22.80;;;9.95;;
20511;SDS011;10414;52.074;5.126;2023-03-01T01:19:48;23.23;;;9.57;;
20511;SDS011;10414;52.074;5.126;2023-03-01T01:22:15;22.35;;;10.85;;
20511;SDS011;10414;52.074;5.126;2023-03-01T01:24:42;24.00;;;10.75;;
20511;SDS011;10414;52.074;5.126;2023-03-01T01:27:09;22.33;;;10.45;;
20511;SDS011;10414;52.074;5.126;2023-03-01T01:29:36;20.98;;;10.50;;
20511;SDS011;10414;52.074;5.126;2023-03-01T01:32:02;26.23;;;11.18;;
20511;SDS011;10414;52.074;5.126;2023-03-01T01:34:30;22.27;;;10.35;;
20511;SDS011;10414;52.074;5.126;2023-03-01T01:36:58;23.08;;;10.88;;
20511;SDS011;10414;52.074;5.126;2023-03-01T01:39:27;24.77;;;11.60;;
20511;SDS011;10414;52.074;5.126;2023-03-01T01:41:54;24.33;;;11.30;;
20511;SDS011;10414;52.074;5.126;2023-03-01T01:44:22;25.00;;;11.05;;
20511;SDS011;10414;52.074;5.126;2023-03-01T01:46:53;21.08;;;10.98;;
20511;SDS011;10414;52.074;5.126;2023-03-01T01:49:24;26.25;;;11.18;;
20511;SDS011;10414;52.074;5.126;2023-03-01T01:51:55;23.05;;;11.25;;
20511;SDS011;10414;52.074;5.126;2023-03-01T01:54:30;23.23;;;10.88;;
20511;SDS011;10414;52.074;5.126;2023-03-01T01:57:03;22.85;;;11.02;;
20511;SDS011;10414;52.074;5.126;2023-03-01T01:59:34;21.73;;;10.98;;
20511;SDS011;10414;52.074;5.126;2023-03-01T02:02:02;25.30;;;11.60;;
20511;SDS011;10414;52.074;5.126;2023-03-01T02:04:30;24.35;;;12.18;;
20511;SDS011;10414;52.074;5.126;2023-03-01T02:06:59;24.65;;;11.85;;
20511;SDS011;10414;52.074;5.126;2023-03-01T02:09:32;21.92;;;11.18;;
20511;SDS011;10414;52.074;5.126;2023-03-01T02:12:00;24.83;;;11.73;;
20511;SDS011;10414;52.074;5.126;2023-03-01T02:14:28;26.35;;;11.40;;
20511;SDS011;10414;52.074;5.126;2023-03-01T02:16:54;25.70;;;11.48;;
20511;SDS011;10414;52.074;5.126;2023-03-01T02:19:25;24.05;;;12.07;;
20511;SDS011;10414;52.074;5.126;2023-03-01T02:22:06;25.90;;;11.95;;
20511;SDS011;10414;52.074;5.126;2023-03-01T02:24:39;25.48;;;12.02;;
20511;SDS011;10414;52.074;5.126;2023-03-01T02:27:13;26.50;;;13.07;;
20511;SDS011;10414;52.074;5.126;2023-03-01T02:29:43;25.88;;;12.05;;
20511;SDS011;10414;52.074;5.126;2023-03-01T02:32:10;28.35;;;12.90;;
20511;SDS011;10414;52.074;5.126;2023-03-01T02:34:39;28.23;;;11.93;;
20511;SDS011;10414;52.074;5.126;2023-03-01T02:37:07;26.45;;;12.43;;
20511;SDS011;10414;52.074;5.126;2023-03-01T02:39:39;26.98;;;12.63;;
20511;SDS011;10414;52.074;5.126;2023-03-01T02:42:09;24.48;;;11.63;;
20511;SDS011;10414;52.074;5.126;2023-03-01T02:44:38;23.48;;;11.85;;
20511;SDS011;10414;52.074;5.126;2023-03-01T02:47:06;26.27;;;12.20;;
20511;SDS011;10414;52.074;5.126;2023-03-01T02:49:34;28.20;;;12.85;;
20511;SDS011;10414;52.074;5.126;2023-03-01T02:52:16;28.00;;;12.52;;
20511;SDS011;10414;52.074;5.126;2023-03-01T02:54:58;30.23;;;12.30;;
20511;SDS011;10414;52.074;5.126;2023-03-01T02:57:28;26.70;;;12.10;;
20511;SDS011;10414;52.074;5.126;2023-03-01T02:59:57;27.17;;;12.77;;
20511;SDS011;10414;52.074;5.126;2023-03-01T03:02:33;26.13;;;12.50;;
20511;SDS011;10414;52.074;5.126;2023-03-01T03:05:05;24.00;;;11.77;;
20511;SDS011;10414;52.074;5.126;2023-03-01T03:10:03;24.55;;;11.70;;
20511;SDS011;10414;52.074;5.126;2023-03-01T03:12:32;23.83;;;11.77;;
20511;SDS011;10414;52.074;5.126;2023-03-01T03:14:58;29.45;;;13.07;;
20511;SDS011;10414;52.074;5.126;2023-03-01T03:17:25;28.40;;;12.70;;
20511;SDS011;10414;52.074;5.126;2023-03-01T03:19:53;29.48;;;13.00;;
20511;SDS011;10414;52.074;5.126;2023-03-01T03:22:20;25.95;;;12.68;;
20511;SDS011;10414;52.074;5.126;2023-03-01T03:24:47;29.27;;;13.13;;
20511;SDS011;10414;52.074;5.126;2023-03-01T03:27:14;24.52;;;11.55;;
20511;SDS011;10414;52.074;5.126;2023-03-01T03:29:41;27.45;;;12.38;;
20511;SDS011;10414;52.074;5.126;2023-03-01T03:32:08;27.75;;;12.85;;
20511;SDS011;10414;52.074;5.126;2023-03-01T03:34:35;30.80;;;11.68;;
20511;SDS011;10414;52.074;5.126;2023-03-01T03:37:03;29.58;;;12.70;;
20511;SDS011;10414;52.074;5.126;2023-03-01T03:39:50;28.05;;;12.48;;
20511;SDS011;10414;52.074;5.126;2023-03-01T03:42:19;26.98;;;12.30;;
20511;SDS011;10414;52.074;5.126;2023-03-01T03:44:47;28.00;;;13.07;;
20511;SDS011;10414;52.074;5.126;2023-03-01T03:47:13;25.65;;;11.70;;
20511;SDS011;10414;52.074;5.126;2023-03-01T03:49:40;27.30;;;12.25;;
20511;SDS011;10414;52.074;5.126;2023-03-01T03:52:09;26.10;;;12.10;;
20511;SDS011;10414;52.074;5.126;2023-03-01T03:57:05;23.65;;;10.82;;
20511;SDS011;10414;52.074;5.126;2023-03-01T03:59:32;20.40;;;9.93;;
20511;SDS011;10414;52.074;5.126;2023-03-01T04:01:59;25.42;;;11.40;;
20511;SDS011;10414;52.074;5.126;2023-03-01T04:04:26;22.92;;;11.13;;
20511;SDS011;10414;52.074;5.126;2023-03-01T04:06:53;24.00;;;11.20;;
20511;SDS011;10414;52.074;5.126;2023-03-01T04:09:21;22.52;;;11.18;;
20511;SDS011;10414;52.074;5.126;2023-03-01T04:11:48;28.08;;;11.27;;
20511;SDS011;10414;52.074;5.126;2023-03-01T04:14:15;25.63;;;11.93;;
20511;SDS011;10414;52.074;5.126;2023-03-01T04:16:42;27.08;;;11.18;;
20511;SDS011;10414;52.074;5.126;2023-03-01T04:19:09;29.65;;;13.10;;
20511;SDS011;10414;52.074;5.126;2023-03-01T04:21:35;27.35;;;11.52;;
20511;SDS011;10414;52.074;5.126;2023-03-01T04:24:03;31.45;;;11.90;;
20511;SDS011;10414;52.074;5.126;2023-03-01T04:26:33;29.65;;;13.30;;
20511;SDS011;10414;52.074;5.126;2023-03-01T04:29:00;26.10;;;12.50;;
20511;SDS011;10414;52.074;5.126;2023-03-01T04:31:26;23.63;;;11.77;;
20511;SDS011;10414;52.074;5.126;2023-03-01T04:33:54;25.42;;;11.68;;
20511;SDS011;10414;52.074;5.126;2023-03-01T04:36:22;26.67;;;11.88;;
20511;SDS011;10414;52.074;5.126;2023-03-01T04:38:50;23.17;;;11.43;;
20511;SDS011;10414;52.074;5.126;2023-03-01T04:41:18;24.48;;;11.38;;
20511;SDS011;10414;52.074;5.126;2023-03-01T04:43:48;24.92;;;11.10;;
20511;SDS011;10414;52.074;5.126;2023-03-01T04:46:16;23.02;;;10.27;;
20511;SDS011;10414;52.074;5.126;2023-03-01T04:48:45;23.48;;;10.38;;
20511;SDS011;10414;52.074;5.126;2023-03-01T04:51:12;26.27;;;12.13;;
20511;SDS011;10414;52.074;5.126;2023-03-01T04:53:40;23.60;;;11.45;;
20511;SDS011;10414;52.074;5.126;2023-03-01T04:56:07;24.25;;;11.38;;
20511;SDS011;10414;52.074;5.126;2023-03-01T04:58:34;21.40;;;10.85;;
20511;SDS011;10414;52.074;5.126;2023-03-01T05:01:07;20.90;;;10.55;;
20511;SDS011;10414;52.074;5.126;2023-03-01T05:03:40;24.27;;;11.38;;
20511;SDS011;10414;52.074;5.126;2023-03-01T05:06:08;22.65;;;10.93;;
20511;SDS011;10414;52.074;5.126;2023-03-01T05:08:36;24.13;;;10.55;;
20511;SDS011;10414;52.074;5.126;2023-03-01T05:11:03;30.15;;;10.77;;
20511;SDS011;10414;52.074;5.126;2023-03-01T05:13:34;20.42;;;10.65;;
20511;SDS011;10414;52.074;5.126;2023-03-01T05:16:04;23.00;;;11.57;;
20511;SDS011;10414;52.074;5.126;2023-03-01T05:18:36;24.52;;;10.75;;
20511;SDS011;10414;52.074;5.126;2023-03-01T05:21:04;24.30;;;10.90;;
20511;SDS011;10414;52.074;5.126;2023-03-01T05:23:33;25.77;;;10.30;;
20511;SDS011;10414;52.074;5.126;2023-03-01T05:26:00;23.77;;;10.25;;
20511;SDS011;10414;52.074;5.126;2023-03-01T05:28:29;23.25;;;10.73;;
20511;SDS011;10414;52.074;5.126;2023-03-01T05:30:56;27.27;;;11.00;;
20511;SDS011;10414;52.074;5.126;2023-03-01T05:33:25;23.30;;;10.75;;
20511;SDS011;10414;52.074;5.126;2023-03-01T05:35:53;25.58;;;10.60;;
20511;SDS011;10414;52.074;5.126;2023-03-01T05:38:20;25.83;;;10.70;;
20511;SDS011;10414;52.074;5.126;2023-03-01T05:40:47;21.95;;;10.32;;
20511;SDS011;10414;52.074;5.126;2023-03-01T05:43:15;18.17;;;9.07;;
20511;SDS011;10414;52.074;5.126;2023-03-01T05:45:43;17.88;;;8.98;;
20511;SDS011;10414;52.074;5.126;2023-03-01T05:48:10;23.20;;;10.18;;
20511;SDS011;10414;52.074;5.126;2023-03-01T05:50:40;25.45;;;10.57;;
20511;SDS011;10414;52.074;5.126;2023-03-01T05:53:09;24.60;;;11.50;;
20511;SDS011;10414;52.074;5.126;2023-03-01T05:55:37;26.05;;;11.02;;
20511;SDS011;10414;52.074;5.126;2023-03-01T05:58:05;22.67;;;10.70;;
20511;SDS011;10414;52.074;5.126;2023-03-01T06:00:33;23.30;;;10.60;;
20511;SDS011;10414;52.074;5.126;2023-03-01T06:03:00;21.63;;;9.82;;
20511;SDS011;10414;52.074;5.126;2023-03-01T06:05:28;21.00;;;10.13;;
20511;SDS011;10414;52.074;5.126;2023-03-01T06:07:59;21.27;;;9.48;;
20511;SDS011;10414;52.074;5.126;2023-03-01T06:10:27;23.33;;;10.25;;
20511;SDS011;10414;52.074;5.126;2023-03-01T06:12:54;21.02;;;9.73;;
20511;SDS011;10414;52.074;5.126;2023-03-01T06:15:22;21.92;;;10.10;;
20511;SDS011;10414;52.074;5.126;2023-03-01T06:17:49;20.77;;;9.70;;
20511;SDS011;10414;52.074;5.126;2023-03-01T06:20:17;22.73;;;9.75;;
20511;SDS011;10414;52.074;5.126;2023-03-01T06:22:45;18.08;;;9.40;;
20511;SDS011;10414;52.074;5.126;2023-03-01T06:25:16;18.15;;;8.27;;
20511;SDS011;10414;52.074;5.126;2023-03-01T06:27:45;19.50;;;8.63;;
20511;SDS011;10414;52.074;5.126;2023-03-01T06:30:14;22.95;;;9.70;;
20511;SDS011;10414;52.074;5.126;2023-03-01T06:32:42;20.90;;;9.13;;
20511;SDS011;10414;52.074;5.126;2023-03-01T06:35:09;19.45;;;8.70;;
20511;SDS011;10414;52.074;5.126;2023-03-01T06:37:37;19.15;;;8.90;;
20511;SDS011;10414;52.074;5.126;2023-03-01T06:40:05;19.00;;;8.90;;
20511;SDS011;10414;52.074;5.126;2023-03-01T06:42:34;18.27;;;9.32;;
20511;SDS011;10414;52.074;5.126;2023-03-01T06:45:02;18.73;;;8.80;;
20511;SDS011;10414;52.074;5.126;2023-03-01T06:47:29;21.63;;;8.80;;
20511;SDS011;10414;52.074;5.126;2023-03-01T06:49:58;19.00;;;8.15;;
20511;SDS011;10414;52.074;5.126;2023-03-01T06:52:25;17.55;;;7.70;;
20511;SDS011;10414;52.074;5.126;2023-03-01T06:54:52;19.48;;;8.38;;
20511;SDS011;10414;52.074;5.126;2023-03-01T06:57:19;19.88;;;8.85;;
20511;SDS011;10414;52.074;5.126;2023-03-01T06:59:47;16.20;;;7.95;;
20511;SDS011;10414;52.074;5.126;2023-03-01T07:02:15;20.88;;;8.95;;
20511;SDS011;10414;52.074;5.126;2023-03-01T07:04:42;20.13;;;8.82;;
20511;SDS011;10414;52.074;5.126;2023-03-01T07:07:09;17.00;;;7.63;;
20511;SDS011;10414;52.074;5.126;2023-03-01T07:09:36;16.58;;;8.15;;
20511;SDS011;10414;52.074;5.126;2023-03-01T07:12:03;16.38;;;7.50;;
20511;SDS011;10414;52.074;5.126;2023-03-01T07:14:31;17.10;;;8.18;;
20511;SDS011;10414;52.074;5.126;2023-03-01T07:16:59;19.70;;;7.70;;
20511;SDS011;10414;52.074;5.126;2023-03-01T07:19:26;16.27;;;7.65;;
20511;SDS011;10414;52.074;5.126;2023-03-01T07:21:53;17.35;;;7.50;;
20511;SDS011;10414;52.074;5.126;2023-03-01T07:24:21;16.15;;;7.28;;
20511;SDS011;10414;52.074;5.126;2023-03-01T07:26:48;13.57;;;6.82;;
20511;SDS011;10414;52.074;5.126;2023-03-01T07:29:15;12.13;;;7.07;;
20511;SDS011;10414;52.074;5.126;2023-03-01T07:31:43;13.75;;;7.43;;
20511;SDS011;10414;52.074;5.126;2023-03-01T07:34:11;13.30;;;6.93;;
20511;SDS011;10414;52.074;5.126;2023-03-01T07:36:38;13.38;;;6.65;;
20511;SDS011;10414;52.074;5.126;2023-03-01T07:39:08;12.80;;;6.90;;
20511;SDS011;10414;52.074;5.126;2023-03-01T07:41:35;14.85;;;7.68;;
20511;SDS011;10414;52.074;5.126;2023-03-01T07:44:02;14.02;;;7.45;;
20511;SDS011;10414;52.074;5.126;2023-03-01T07:46:29;14.52;;;7.82;;
20511;SDS011;10414;52.074;5.126;2023-03-01T07:48:56;14.75;;;8.00;;
20511;SDS011;10414;52.074;5.126;2023-03-01T07:51:25;13.98;;;7.93;;
20511;SDS011;10414;52.074;5.126;2023-03-01T07:53:52;13.02;;;7.35;;
20511;SDS011;10414;52.074;5.126;2023-03-01T07:56:18;14.60;;;7.57;;
20511;SDS011;10414;52.074;5.126;2023-03-01T07:58:47;14.70;;;8.25;;
20511;SDS011;10414;52.074;5.126;2023-03-01T08:01:14;12.85;;;7.72;;
20511;SDS011;10414;52.074;5.126;2023-03-01T08:03:43;12.88;;;7.63;;
20511;SDS011;10414;52.074;5.126;2023-03-01T08:06:11;15.00;;;7.53;;
20511;SDS011;10414;52.074;5.126;2023-03-01T08:08:41;15.95;;;7.93;;
20511;SDS011;10414;52.074;5.126;2023-03-01T08:11:10;13.23;;;7.97;;
20511;SDS011;10414;52.074;5.126;2023-03-01T08:13:38;13.98;;;7.78;;
20511;SDS011;10414;52.074;5.126;2023-03-01T08:16:06;15.27;;;8.80;;
20511;SDS011;10414;52.074;5.126;2023-03-01T08:21:03;14.45;;;8.18;;
20511;SDS011;10414;52.074;5.126;2023-03-01T08:23:30;12.77;;;6.80;;
20511;SDS011;10414;52.074;5.126;2023-03-01T08:26:06;12.23;;;7.30;;
20511;SDS011;10414;52.074;5.126;2023-03-01T08:28:34;14.35;;;7.05;;
20511;SDS011;10414;52.074;5.126;2023-03-01T08:31:01;13.70;;;6.97;;
20511;SDS011;10414;52.074;5.126;2023-03-01T08:33:28;13.52;;;6.88;;
20511;SDS011;10414;52.074;5.126;2023-03-01T08:36:02;9.13;;;5.93;;
20511;SDS011;10414;52.074;5.126;2023-03-01T08:38:31;10.68;;;6.30;;
20511;SDS011;10414;52.074;5.126;2023-03-01T08:40:59;11.77;;;6.10;;
20511;SDS011;10414;52.074;5.126;2023-03-01T08:43:28;10.55;;;5.80;;
20511;SDS011;10414;52.074;5.126;2023-03-01T08:45:55;8.02;;;4.85;;
20511;SDS011;10414;52.074;5.126;2023-03-01T08:48:22;9.25;;;5.60;;
20511;SDS011;10414;52.074;5.126;2023-03-01T08:50:49;9.05;;;5.68;;
20511;SDS011;10414;52.074;5.126;2023-03-01T08:53:16;8.55;;;5.30;;
20511;SDS011;10414;52.074;5.126;2023-03-01T08:55:43;7.97;;;5.20;;
20511;SDS011;10414;52.074;5.126;2023-03-01T08:58:10;9.35;;;5.55;;
20511;SDS011;10414;52.074;5.126;2023-03-01T09:00:39;8.57;;;5.30;;
20511;SDS011;10414;52.074;5.126;2023-03-01T09:03:06;9.98;;;5.63;;
20511;SDS011;10414;52.074;5.126;2023-03-01T09:05:33;8.85;;;4.97;;
20511;SDS011;10414;52.074;5.126;2023-03-01T09:08:01;12.07;;;5.88;;
20511;SDS011;10414;52.074;5.126;2023-03-01T09:10:28;10.20;;;6.00;;
20511;SDS011;10414;52.074;5.126;2023-03-01T09:12:56;9.35;;;5.15;;
20511;SDS011;10414;52.074;5.126;2023-03-01T09:15:23;8.10;;;5.50;;
20511;SDS011;10414;52.074;5.126;2023-03-01T09:17:51;11.88;;;6.18;;
20511;SDS011;10414;52.074;5.126;2023-03-01T09:20:18;10.13;;;6.10;;
20511;SDS011;10414;52.074;5.126;2023-03-01T09:22:45;10.80;;;6.35;;
20511;SDS011;10414;52.074;5.126;2023-03-01T09:25:12;10.45;;;6.15;;
20511;SDS011;10414;52.074;5.126;2023-03-01T09:27:39;11.63;;;6.30;;
20511;SDS011;10414;52.074;5.126;2023-03-01T09:30:06;10.98;;;6.40;;
20511;SDS011;10414;52.074;5.126;2023-03-01T09:32:34;8.57;;;5.13;;
20511;SDS011;10414;52.074;5.126;2023-03-01T09:35:02;7.85;;;4.53;;
20511;SDS011;10414;52.074;5.126;2023-03-01T09:37:30;7.93;;;4.38;;
20511;SDS011;10414;52.074;5.126;2023-03-01T09:39:58;8.60;;;4.35;;
20511;SDS011;10414;52.074;5.126;2023-03-01T09:42:25;8.02;;;4.03;;
20511;SDS011;10414;52.074;5.126;2023-03-01T09:44:54;8.48;;;4.88;;
20511;SDS011;10414;52.074;5.126;2023-03-01T09:47:27;9.23;;;4.43;;
20511;SDS011;10414;52.074;5.126;2023-03-01T09:50:00;7.45;;;4.22;;
20511;SDS011;10414;52.074;5.126;2023-03-01T09:52:34;8.13;;;3.95;;
20511;SDS011;10414;52.074;5.126;2023-03-01T09:55:08;6.15;;;3.30;;
20511;SDS011;10414;52.074;5.126;2023-03-01T09:57:38;5.10;;;2.80;;
20511;SDS011;10414;52.074;5.126;2023-03-01T10:00:20;6.50;;;2.80;;
20511;SDS011;10414;52.074;5.126;2023-03-01T10:02:57;6.85;;;2.85;;
20511;SDS011;10414;52.074;5.126;2023-03-01T10:05:33;6.70;;;2.92;;
20511;SDS011;10414;52.074;5.126;2023-03-01T10:08:10;9.07;;;3.33;;
20511;SDS011;10414;52.074;5.126;2023-03-01T10:10:56;6.07;;;3.00;;
20511;SDS011;10414;52.074;5.126;2023-03-01T10:13:25;6.22;;;2.72;;
20511;SDS011;10414;52.074;5.126;2023-03-01T10:16:00;6.38;;;2.85;;
20511;SDS011;10414;52.074;5.126;2023-03-01T10:18:32;7.97;;;3.53;;
20511;SDS011;10414;52.074;5.126;2023-03-01T10:21:07;6.77;;;3.17;;
20511;SDS011;10414;52.074;5.126;2023-03-01T10:23:39;8.38;;;3.30;;
20511;SDS011;10414;52.074;5.126;2023-03-01T10:26:12;6.47;;;3.17;;
20511;SDS011;10414;52.074;5.126;2023-03-01T10:28:54;6.47;;;3.10;;
20511;SDS011;10414;52.074;5.126;2023-03-01T10:31:30;7.00;;;3.00;;
20511;SDS011;10414;52.074;5.126;2023-03-01T10:34:08;5.40;;;2.60;;
20511;SDS011;10414;52.074;5.126;2023-03-01T10:36:39;5.30;;;2.57;;
20511;SDS011;10414;52.074;5.126;2023-03-01T10:39:11;7.10;;;3.00;;
20511;SDS011;10414;52.074;5.126;2023-03-01T10:41:48;6.65;;;3.10;;
20511;SDS011;10414;52.074;5.126;2023-03-01T10:44:39;8.00;;;2.63;;
20511;SDS011;10414;52.074;5.126;2023-03-01T10:47:17;6.07;;;3.30;;
20511;SDS011;10414;52.074;5.126;2023-03-01T10:49:53;7.95;;;3.50;;
20511;SDS011;10414;52.074;5.126;2023-03-01T10:52:24;6.53;;;3.17;;
20511;SDS011;10414;52.074;5.126;2023-03-01T10:54:54;6.30;;;3.30;;
20511;SDS011;10414;52.074;5.126;2023-03-01T10:57:27;6.57;;;3.05;;
20511;SDS011;10414;52.074;5.126;2023-03-01T11:02:46;7.05;;;3.08;;
20511;SDS011;10414;52.074;5.126;2023-03-01T11:07:49;6.32;;;2.63;;
20511;SDS011;10414;52.074;5.126;2023-03-01T11:10:17;8.57;;;2.75;;
20511;SDS011;10414;52.074;5.126;2023-03-01T11:12:45;5.55;;;2.92;;
20511;SDS011;10414;52.074;5.126;2023-03-01T11:15:19;6.63;;;2.83;;
20511;SDS011;10414;52.074;5.126;2023-03-01T11:17:48;6.78;;;3.03;;
20511;SDS011;10414;52.074;5.126;2023-03-01T11:20:17;6.05;;;2.97;;
20511;SDS011;10414;52.074;5.126;2023-03-01T11:22:53;6.25;;;2.70;;
20511;SDS011;10414;52.074;5.126;2023-03-01T11:25:24;7.00;;;3.30;;
20511;SDS011;10414;52.074;5.126;2023-03-01T11:27:53;6.97;;;3.95;;
20511;SDS011;10414;52.074;5.126;2023-03-01T11:30:22;9.13;;;3.83;;
20511;SDS011;10414;52.074;5.126;2023-03-01T11:32:57;6.25;;;3.20;;
20511;SDS011;10414;52.074;5.126;2023-03-01T11:35:31;7.18;;;3.13;;
20511;SDS011;10414;52.074;5.126;2023-03-01T11:38:05;8.10;;;3.08;;
20511;SDS011;10414;52.074;5.126;2023-03-01T11:40:43;6.07;;;3.17;;
20511;SDS011;10414;52.074;5.126;2023-03-01T11:43:15;6.28;;;3.13;;
20511;SDS011;10414;52.074;5.126;2023-03-01T11:48:46;8.13;;;3.72;;
20511;SDS011;10414;52.074;5.126;2023-03-01T11:51:24;8.93;;;3.78;;
20511;SDS011;10414;52.074;5.126;2023-03-01T11:54:09;8.13;;;3.40;;
20511;SDS011;10414;52.074;5.126;2023-03-01T11:56:45;11.95;;;4.20;;
20511;SDS011;10414;52.074;5.126;2023-03-01T11:59:39;5.78;;;2.60;;
20511;SDS011;10414;52.074;5.126;2023-03-01T12:05:56;7.15;;;3.30;;
20511;SDS011;10414;52.074;5.126;2023-03-01T12:08:40;8.88;;;2.70;;
20511;SDS011;10414;52.074;5.126;2023-03-01T12:11:15;5.85;;;2.92;;
20511;SDS011;10414;52.074;5.126;2023-03-01T12:16:50;6.95;;;2.88;;
20511;SDS011;10414;52.074;5.126;2023-03-01T12:19:35;5.38;;;2.55;;
20511;SDS011;10414;52.074;5.126;2023-03-01T12:22:16;7.82;;;3.20;;
20511;SDS011;10414;52.074;5.126;2023-03-01T12:27:48;5.72;;;2.75;;
20511;SDS011;10414;52.074;5.126;2023-03-01T12:30:34;8.30;;;2.90;;
20511;SDS011;10414;52.074;5.126;2023-03-01T12:33:16;6.00;;;2.85;;
20511;SDS011;10414;52.074;5.126;2023-03-01T12:35:54;6.10;;;2.80;;
20511;SDS011;10414;52.074;5.126;2023-03-01T12:38:37;6.65;;;3.03;;
20511;SDS011;10414;52.074;5.126;2023-03-01T12:41:13;5.97;;;2.60;;
20511;SDS011;10414;52.074;5.126;2023-03-01T12:44:01;6.22;;;2.83;;
20511;SDS011;10414;52.074;5.126;2023-03-01T12:46:41;4.53;;;2.25;;
20511;SDS011;10414;52.074;5.126;2023-03-01T12:49:19;4.63;;;2.50;;
20511;SDS011;10414;52.074;5.126;2023-03-01T12:51:51;7.60;;;3.00;;
20511;SDS011;10414;52.074;5.126;2023-03-01T12:54:22;6.07;;;2.75;;
20511;SDS011;10414;52.074;5.126;2023-03-01T12:56:54;5.68;;;2.72;;
20511;SDS011;10414;52.074;5.126;2023-03-01T12:59:26;6.45;;;2.80;;
20511;SDS011;10414;52.074;5.126;2023-03-01T13:02:01;6.60;;;2.50;;
20511;SDS011;10414;52.074;5.126;2023-03-01T13:04:40;6.80;;;2.70;;
20511;SDS011;10414;52.074;5.126;2023-03-01T13:07:34;5.03;;;2.30;;
20511;SDS011;10414;52.074;5.126;2023-03-01T13:10:11;6.60;;;2.50;;
20511;SDS011;10414;52.074;5.126;2023-03-01T13:12:48;6.30;;;2.92;;
20511;SDS011;10414;52.074;5.126;2023-03-01T13:15:29;6.65;;;2.65;;
20511;SDS011;10414;52.074;5.126;2023-03-01T13:17:59;5.38;;;2.70;;
20511;SDS011;10414;52.074;5.126;2023-03-01T13:20:29;6.97;;;3.20;;
20511;SDS011;10414;52.074;5.126;2023-03-01T13:23:03;7.82;;;2.80;;
20511;SDS011;10414;52.074;5.126;2023-03-01T13:25:33;6.88;;;2.95;;
20511;SDS011;10414;52.074;5.126;2023-03-01T13:31:04;7.93;;;2.90;;
20511;SDS011;10414;52.074;5.126;2023-03-01T13:33:33;6.70;;;3.03;;
20511;SDS011;10414;52.074;5.126;2023-03-01T13:36:11;6.43;;;3.20;;
20511;SDS011;10414;52.074;5.126;2023-03-01T13:39:02;8.98;;;3.28;;
20511;SDS011;10414;52.074;5.126;2023-03-01T13:41:50;7.03;;;3.22;;
20511;SDS011;10414;52.074;5.126;2023-03-01T13:44:20;6.25;;;3.00;;
20511;SDS011;10414;52.074;5.126;2023-03-01T13:46:53;7.75;;;3.35;;
20511;SDS011;10414;52.074;5.126;2023-03-01T13:49:23;9.13;;;3.20;;
20511;SDS011;10414;52.074;5.126;2023-03-01T13:51:54;6.68;;;3.13;;
20511;SDS011;10414;52.074;5.126;2023-03-01T13:54:24;7.53;;;2.50;;
20511;SDS011;10414;52.074;5.126;2023-03-01T13:56:55;6.72;;;3.20;;
20511;SDS011;10414;52.074;5.126;2023-03-01T13:59:23;6.50;;;2.97;;
20511;SDS011;10414;52.074;5.126;2023-03-01T14:01:56;7.78;;;3.50;;
20511;SDS011;10414;52.074;5.126;2023-03-01T14:04:26;6.40;;;3.20;;
20511;SDS011;10414;52.074;5.126;2023-03-01T14:07:08;6.60;;;2.67;;
20511;SDS011;10414;52.074;5.126;2023-03-01T14:09:37;7.85;;;3.15;;
20511;SDS011;10414;52.074;5.126;2023-03-01T14:14:52;7.13;;;3.15;;
20511;SDS011;10414;52.074;5.126;2023-03-01T14:17:32;7.95;;;3.10;;
20511;SDS011;10414;52.074;5.126;2023-03-01T14:20:11;6.45;;;2.85;;
20511;SDS011;10414;52.074;5.126;2023-03-01T14:22:42;6.85;;;2.75;;
20511;SDS011;10414;52.074;5.126;2023-03-01T14:25:18;11.68;;;3.00;;
20511;SDS011;10414;52.074;5.126;2023-03-01T14:27:51;6.15;;;2.30;;
20511;SDS011;10414;52.074;5.126;2023-03-01T14:30:24;9.32;;;2.95;;
20511;SDS011;10414;52.074;5.126;2023-03-01T14:32:56;6.75;;;2.65;;
20511;SDS011;10414;52.074;5.126;2023-03-01T14:35:25;5.78;;;2.67;;
20511;SDS011;10414;52.074;5.126;2023-03-01T14:37:53;8.65;;;2.80;;
20511;SDS011;10414;52.074;5.126;2023-03-01T14:40:25;8.27;;;3.70;;
20511;SDS011;10414;52.074;5.126;2023-03-01T14:42:53;7.32;;;2.97;;
20511;SDS011;10414;52.074;5.126;2023-03-01T14:45:22;7.32;;;3.03;;
20511;SDS011;10414;52.074;5.126;2023-03-01T14:47:51;7.22;;;3.13;;
20511;SDS011;10414;52.074;5.126;2023-03-01T14:50:22;9.05;;;3.38;;
20511;SDS011;10414;52.074;5.126;2023-03-01T14:52:52;6.30;;;3.08;;
20511;SDS011;10414;52.074;5.126;2023-03-01T14:55:23;5.88;;;2.80;;
20511;SDS011;10414;52.074;5.126;2023-03-01T14:57:54;6.72;;;3.05;;
20511;SDS011;10414;52.074;5.126;2023-03-01T15:00:24;6.70;;;2.88;;
20511;SDS011;10414;52.074;5.126;2023-03-01T15:02:54;6.43;;;3.22;;
20511;SDS011;10414;52.074;5.126;2023-03-01T15:05:27;6.38;;;3.28;;
20511;SDS011;10414;52.074;5.126;2023-03-01T15:07:58;6.35;;;3.10;;
20511;SDS011;10414;52.074;5.126;2023-03-01T15:10:28;6.70;;;3.20;;
20511;SDS011;10414;52.074;5.126;2023-03-01T15:13:09;5.88;;;2.70;;
20511;SDS011;10414;52.074;5.126;2023-03-01T15:15:38;7.20;;;3.00;;
20511;SDS011;10414;52.074;5.126;2023-03-01T15:18:17;6.35;;;2.95;;
20511;SDS011;10414;52.074;5.126;2023-03-01T15:20:46;9.88;;;3.20;;
20511;SDS011;10414;52.074;5.126;2023-03-01T15:23:21;8.02;;;3.55;;
20511;SDS011;10414;52.074;5.126;2023-03-01T15:25:50;6.07;;;2.97;;